createdAt,value
2023-03-15T00:03:47.023Z,13.2
2023-03-15T00:09:24.707Z,10.7
2023-03-15T00:14:59.051Z,10.7
2023-03-15T00:20:15.160Z,9.6
2023-03-15T00:25:50.607Z,15.6
2023-03-15T00:31:43.210Z,7.2
2023-03-15T00:37:09.258Z,3.6
2023-03-15T00:42:58.932Z,7.2
2023-03-15T00:48:08.271Z,2.4
2023-03-15T00:53:51.635Z,4.8
2023-03-15T00:59:29.038Z,5.9
2023-03-15T01:04:47.738Z,4.8
2023-03-15T01:10:36.874Z,0
2023-03-15T01:16:00.500Z,0
2023-03-15T01:21:48.710Z,0
2023-03-15T01:26:57.313Z,5.9
2023-03-15T01:32:29.407Z,0
2023-03-15T01:38:07.418Z,2.4
2023-03-15T01:43:43.945Z,0
2023-03-15T01:49:12.272Z,0
2023-03-15T01:55:03.719Z,0
2023-03-15T02:00:22.280Z,0
2023-03-15T02:06:12.158Z,0
2023-03-15T02:11:17.033Z,3.6
2023-03-15T02:17:02.640Z,4.8
2023-03-15T02:22:33.931Z,2.4
2023-03-15T02:28:05.075Z,0
2023-03-15T02:33:37.385Z,2.4
2023-03-15T02:39:11.524Z,0
2023-03-15T02:44:39.690Z,4.8
2023-03-15T02:50:33.353Z,3.6
2023-03-15T02:55:41.953Z,2.4
2023-03-15T03:01:18.809Z,0
2023-03-15T03:06:50.853Z,0
2023-03-15T03:12:20.161Z,0
2023-03-15T03:18:12.736Z,0
2023-03-15T03:23:51.568Z,0
2023-03-15T03:29:03.215Z,0
2023-03-15T03:34:37.774Z,0
2023-03-15T03:40:10.368Z,0
2023-03-15T03:45:38.596Z,0
2023-03-15T03:51:35.487Z,0
2023-03-15T03:57:06.106Z,0
2023-03-15T04:02:19.797Z,3.6
2023-03-15T04:07:49.639Z,13.2
2023-03-15T04:13:38.280Z,4.8
2023-03-15T04:19:02.964Z,0
2023-03-15T04:24:52.219Z,0
2023-03-15T04:30:02.829Z,0
2023-03-15T04:35:56.596Z,2.4
2023-03-15T04:41:30.330Z,4.8
2023-03-15T04:46:43.555Z,0
2023-03-15T04:52:18.657Z,0
2023-03-15T04:57:56.417Z,0
2023-03-15T05:03:17.382Z,0
2023-03-15T05:09:03.997Z,0
2023-03-15T05:20:10.475Z,0
2023-03-15T05:25:48.128Z,0
2023-03-15T05:31:24.326Z,0
2023-03-15T05:36:31.097Z,0
2023-03-15T05:42:18.982Z,0
2023-03-15T05:47:49.281Z,0
2023-03-15T05:53:31.980Z,7.2
2023-03-15T05:58:41.611Z,4.8
2023-03-15T06:04:38.568Z,0
2023-03-15T06:09:57.418Z,0
2023-03-15T06:15:17.822Z,0
2023-03-15T06:21:12.909Z,0
2023-03-15T06:26:27.338Z,0
2023-03-15T06:32:24.613Z,0
2023-03-15T06:37:39.098Z,0
2023-03-15T06:43:05.172Z,0
2023-03-15T06:48:43.632Z,0
2023-03-15T06:54:25.096Z,0
2023-03-15T06:59:41.921Z,0
2023-03-15T07:05:27.629Z,0
2023-03-15T07:10:51.033Z,0
2023-03-15T07:16:27.894Z,0
2023-03-15T07:22:16.987Z,0
2023-03-15T07:27:31.635Z,0
2023-03-15T07:33:16.314Z,0
2023-03-15T07:38:54.499Z,0
2023-03-15T07:44:16.589Z,0
2023-03-15T07:49:58.347Z,0
2023-03-15T07:55:10.148Z,0
2023-03-15T08:00:51.914Z,0
2023-03-15T08:06:18.092Z,0
2023-03-15T08:12:15.203Z,0
2023-03-15T08:17:49.101Z,0
2023-03-15T08:23:23.719Z,0
2023-03-15T08:28:56.292Z,0
2023-03-15T08:34:18.503Z,0
2023-03-15T08:39:55.469Z,0
2023-03-15T08:45:51.284Z,0
2023-03-15T08:51:13.239Z,0
2023-03-15T08:56:43.246Z,0
2023-03-15T09:01:58.654Z,0
2023-03-15T09:07:44.443Z,0
2023-03-15T09:13:26.407Z,0
2023-03-15T09:19:01.776Z,4.8
2023-03-15T09:24:44.991Z,7.2
2023-03-15T09:30:10.274Z,4.8
2023-03-15T09:35:34.287Z,5.9
2023-03-15T09:41:17.643Z,8.4
2023-03-15T09:46:52.707Z,5.9
2023-03-15T09:52:32.648Z,7.2
2023-03-15T09:58:14.818Z,11.9
2023-03-15T10:03:43.320Z,4.8
2023-03-15T10:09:14.286Z,10.7
2023-03-15T10:14:57.767Z,9.6
2023-03-15T10:20:31.984Z,10.7
2023-03-15T10:25:45.466Z,7.2
2023-03-15T10:31:36.712Z,8.4
2023-03-15T10:37:03.252Z,8.4
2023-03-15T10:42:41.729Z,7.2
2023-03-15T10:48:31.730Z,8.4
2023-03-15T10:54:07.606Z,5.9
2023-03-15T10:59:36.967Z,5.9
2023-03-15T11:05:00.893Z,7.2
2023-03-15T11:10:47.789Z,7.2
2023-03-15T11:16:16.334Z,5.9
2023-03-15T11:21:45.476Z,7.2
2023-03-15T11:27:42.759Z,5.9
2023-03-15T11:32:54.955Z,7.2
2023-03-15T11:38:45.654Z,7.2
2023-03-15T11:44:25.847Z,7.2
2023-03-15T11:49:42.321Z,7.2
2023-03-15T11:55:46.713Z,8.4
2023-03-15T12:01:01.714Z,8.4
2023-03-15T12:06:41.231Z,7.2
2023-03-15T12:12:09.764Z,4.8
2023-03-15T12:18:02.077Z,9.6
2023-03-15T12:23:45.392Z,7.2
2023-03-15T12:29:12.137Z,8.4
2023-03-15T12:34:43.420Z,7.2
2023-03-15T12:40:26.955Z,11.9
2023-03-15T12:45:51.893Z,11.9
2023-03-15T12:51:40.227Z,7.2
2023-03-15T12:57:19.922Z,4.8
2023-03-15T13:02:44.561Z,9.6
2023-03-15T13:08:25.658Z,9.6
2023-03-15T13:14:00.835Z,9.6
2023-03-15T13:19:45.044Z,8.4
2023-03-15T13:25:19.460Z,7.2
2023-03-15T13:30:42.125Z,3.6
2023-03-15T13:36:32.631Z,5.9
2023-03-15T13:41:58.138Z,8.4
2023-03-15T13:47:47.949Z,9.6
2023-03-15T13:53:35.728Z,9.6
2023-03-15T13:58:57.202Z,5.9
2023-03-15T14:04:19.594Z,13.2
2023-03-15T14:10:00.474Z,8.4
2023-03-15T14:15:49.918Z,8.4
2023-03-15T14:21:08.703Z,8.4
2023-03-15T14:26:55.055Z,9.6
2023-03-15T14:32:42.802Z,8.4
2023-03-15T14:38:08.363Z,9.6
2023-03-15T14:43:52.206Z,8.4
2023-03-15T14:49:32.881Z,5.9
2023-03-15T14:55:07.643Z,8.4
2023-03-15T15:00:39.256Z,11.9
2023-03-15T15:05:56.774Z,8.4
2023-03-15T15:12:01.610Z,8.4
2023-03-15T15:17:27.500Z,4.8
2023-03-15T15:23:11.969Z,4.8
2023-03-15T15:28:47.028Z,9.6
2023-03-15T15:34:07.540Z,15.6
2023-03-15T15:40:04.085Z,13.2
2023-03-15T15:51:14.416Z,13.2
2023-03-15T15:56:35.990Z,9.6
2023-03-15T16:02:31.522Z,7.2
2023-03-15T16:07:53.546Z,10.7
2023-03-15T16:13:14.777Z,8.4
2023-03-15T16:18:52.532Z,7.2
2023-03-15T16:24:42.310Z,8.4
2023-03-15T16:30:04.437Z,8.4
2023-03-15T16:35:43.063Z,9.6
2023-03-15T16:41:22.139Z,9.6
2023-03-15T16:46:47.824Z,11.9
2023-03-15T16:52:35.586Z,11.9
2023-03-15T16:58:03.751Z,11.9
2023-03-15T17:03:25.722Z,8.4
2023-03-15T17:09:24.332Z,9.6
2023-03-15T17:14:37.615Z,9.6
2023-03-15T17:20:30.568Z,10.7
2023-03-15T17:26:01.758Z,9.6
2023-03-15T17:31:32.160Z,9.6
2023-03-15T17:36:51.822Z,9.6
2023-03-15T17:42:41.104Z,13.2
2023-03-15T17:48:26.957Z,13.2
2023-03-15T17:53:34.659Z,11.9
2023-03-15T17:59:13.636Z,9.6
2023-03-15T18:04:47.028Z,8.4
2023-03-15T18:10:39.945Z,9.6
2023-03-15T18:15:55.308Z,9.6
2023-03-15T18:21:33.739Z,9.6
2023-03-15T18:27:08.158Z,5.9
2023-03-15T18:32:46.222Z,7.2
2023-03-15T18:38:15.749Z,2.4
2023-03-15T18:43:56.615Z,2.4
2023-03-15T18:49:37.254Z,3.6
2023-03-15T18:55:00.659Z,7.2
2023-03-15T19:00:45.748Z,4.8
2023-03-15T19:05:54.449Z,5.9
2023-03-15T19:11:28.766Z,2.4
2023-03-15T19:17:18.125Z,0
2023-03-15T19:22:50.480Z,2.4
2023-03-15T19:28:34.192Z,0
2023-03-15T19:33:55.959Z,0
2023-03-15T19:39:22.395Z,0
2023-03-15T19:44:47.544Z,0
2023-03-15T19:50:40.781Z,4.8
2023-03-15T19:56:18.047Z,0
2023-03-15T20:01:52.997Z,0
2023-03-15T20:07:26.235Z,0
2023-03-15T20:12:42.338Z,2.4
2023-03-15T20:18:35.792Z,4.8
2023-03-15T20:23:44.044Z,2.4
2023-03-15T20:29:16.031Z,0
2023-03-15T20:35:05.346Z,0
2023-03-15T20:40:42.694Z,0
2023-03-15T20:46:20.992Z,0
2023-03-15T20:51:44.143Z,0
2023-03-15T20:57:13.493Z,3.6
2023-03-15T21:02:34.198Z,2.4
2023-03-15T21:08:32.749Z,3.6
2023-03-15T21:14:07.366Z,0
2023-03-15T21:19:11.062Z,0
2023-03-15T21:25:02.461Z,0
2023-03-15T21:30:19.896Z,0
2023-03-15T21:36:02.237Z,0
2023-03-15T21:41:23.481Z,0
2023-03-15T21:47:21.824Z,0
2023-03-15T21:52:31.567Z,0
2023-03-15T21:58:21.833Z,0
2023-03-15T22:03:33.974Z,0
2023-03-15T22:09:08.540Z,0
2023-03-15T22:14:38.793Z,0
2023-03-15T22:20:35.797Z,0
2023-03-15T22:25:57.189Z,0
2023-03-15T22:31:46.086Z,0
2023-03-15T22:37:07.295Z,0
2023-03-15T22:42:24.630Z,0
2023-03-15T22:48:22.055Z,0
2023-03-15T22:53:33.044Z,0
2023-03-15T22:59:23.554Z,0
2023-03-15T23:04:41.902Z,0
2023-03-15T23:10:36.283Z,0
2023-03-15T23:15:54.512Z,0
2023-03-15T23:21:36.582Z,0
2023-03-15T23:27:11.846Z,0
2023-03-15T23:32:26.185Z,0
2023-03-15T23:38:04.640Z,0
2023-03-15T23:43:43.109Z,0
2023-03-15T23:49:10.995Z,0
2023-03-15T23:54:48.319Z,0
